sensor_id;sensor_type;location;lat;lon;timestamp;pressure;altitude;pressure_sealevel;temperature;humidity
79136;BME280;68533;51.090;17.216;2023-06-14T00:02:11;100212.22;;;7.33;92.86
79136;BME280;68533;51.090;17.216;2023-06-14T00:04:37;100215.22;;;7.36;92.66
79136;BME280;68533;51.090;17.216;2023-06-14T00:07:05;100216.28;;;7.30;92.46
79136;BME280;68533;51.090;17.216;2023-06-14T00:09:34;100216.31;;;7.35;92.60
79136;BME280;68533;51.090;17.216;2023-06-14T00:12:01;100225.59;;;7.29;93.19
79136;BME280;68533;51.090;17.216;2023-06-14T00:14:27;100224.50;;;7.30;92.93
79136;BME280;68533;51.090;17.216;2023-06-14T00:16:53;100214.38;;;7.31;93.27
79136;BME280;68533;51.090;17.216;2023-06-14T00:19:25;100220.94;;;7.30;93.18
79136;BME280;68533;51.090;17.216;2023-06-14T00:21:50;100217.06;;;7.21;93.42
79136;BME280;68533;51.090;17.216;2023-06-14T00:24:19;100218.97;;;7.15;93.49
79136;BME280;68533;51.090;17.216;2023-06-14T00:26:45;100217.88;;;7.16;93.56
79136;BME280;68533;51.090;17.216;2023-06-14T00:29:11;100222.50;;;7.11;94.06
79136;BME280;68533;51.090;17.216;2023-06-14T00:31:37;100226.28;;;7.05;93.68
79136;BME280;68533;51.090;17.216;2023-06-14T00:34:03;100226.00;;;7.06;94.27
79136;BME280;68533;51.090;17.216;2023-06-14T00:36:29;100230.69;;;7.11;93.92
79136;BME280;68533;51.090;17.216;2023-06-14T00:38:55;100224.13;;;7.12;94.28
79136;BME280;68533;51.090;17.216;2023-06-14T00:41:21;100227.69;;;7.12;94.09
79136;BME280;68533;51.090;17.216;2023-06-14T00:43:47;100231.53;;;7.11;94.50
79136;BME280;68533;51.090;17.216;2023-06-14T00:46:13;100221.69;;;7.15;94.92
79136;BME280;68533;51.090;17.216;2023-06-14T00:48:39;100231.53;;;7.11;95.62
79136;BME280;68533;51.090;17.216;2023-06-14T00:51:06;100229.88;;;7.10;95.29
79136;BME280;68533;51.090;17.216;2023-06-14T00:53:32;100232.31;;;7.12;95.43
79136;BME280;68533;51.090;17.216;2023-06-14T00:56:02;100228.19;;;7.04;95.34
79136;BME280;68533;51.090;17.216;2023-06-14T00:58:28;100232.84;;;7.04;95.43
79136;BME280;68533;51.090;17.216;2023-06-14T01:03:30;100236.69;;;7.03;95.45
79136;BME280;68533;51.090;17.216;2023-06-14T01:06:23;100236.63;;;6.97;95.64
79136;BME280;68533;51.090;17.216;2023-06-14T01:11:32;100231.72;;;6.94;95.78
79136;BME280;68533;51.090;17.216;2023-06-14T01:13:59;100233.63;;;6.99;95.61
79136;BME280;68533;51.090;17.216;2023-06-14T01:16:28;100232.81;;;6.98;95.73
79136;BME280;68533;51.090;17.216;2023-06-14T01:18:55;100230.38;;;7.02;95.48
79136;BME280;68533;51.090;17.216;2023-06-14T01:21:23;100237.50;;;7.03;95.52
79136;BME280;68533;51.090;17.216;2023-06-14T01:23:50;100238.03;;;7.05;95.79
79136;BME280;68533;51.090;17.216;2023-06-14T01:26:22;100237.22;;;7.05;96.08
79136;BME280;68533;51.090;17.216;2023-06-14T01:28:49;100232.31;;;7.12;95.02
79136;BME280;68533;51.090;17.216;2023-06-14T01:31:19;100228.22;;;7.09;95.19
79136;BME280;68533;51.090;17.216;2023-06-14T01:33:49;100226.00;;;7.06;95.02
79136;BME280;68533;51.090;17.216;2023-06-14T01:36:19;100220.78;;;6.99;95.38
79136;BME280;68533;51.090;17.216;2023-06-14T01:38:47;100228.16;;;6.94;95.42
79136;BME280;68533;51.090;17.216;2023-06-14T01:41:19;100223.75;;;6.88;96.50
79136;BME280;68533;51.090;17.216;2023-06-14T01:43:47;100225.88;;;6.81;96.32
79136;BME280;68533;51.090;17.216;2023-06-14T01:46:15;100225.31;;;6.79;96.30
79136;BME280;68533;51.090;17.216;2023-06-14T01:48:41;100223.91;;;6.71;96.13
79136;BME280;68533;51.090;17.216;2023-06-14T01:51:07;100231.28;;;6.71;96.66
79136;BME280;68533;51.090;17.216;2023-06-14T01:53:34;100230.53;;;6.80;97.03
79136;BME280;68533;51.090;17.216;2023-06-14T01:56:01;100231.97;;;6.93;95.44
79136;BME280;68533;51.090;17.216;2023-06-14T01:58:27;100231.44;;;6.96;96.27
79136;BME280;68533;51.090;17.216;2023-06-14T02:00:53;100230.41;;;7.07;96.43
79136;BME280;68533;51.090;17.216;2023-06-14T02:03:21;100218.72;;;7.27;96.42
79136;BME280;68533;51.090;17.216;2023-06-14T02:05:47;100222.91;;;7.50;97.00
79136;BME280;68533;51.090;17.216;2023-06-14T02:08:13;100222.44;;;7.68;97.06
79136;BME280;68533;51.090;17.216;2023-06-14T02:10:39;100220.28;;;7.85;96.12
79136;BME280;68533;51.090;17.216;2023-06-14T02:13:05;100228.50;;;8.00;94.57
79136;BME280;68533;51.090;17.216;2023-06-14T02:15:32;100222.50;;;8.08;94.27
79136;BME280;68533;51.090;17.216;2023-06-14T02:18:02;100216.22;;;8.13;94.76
79136;BME280;68533;51.090;17.216;2023-06-14T02:20:29;100226.06;;;8.19;93.33
79136;BME280;68533;51.090;17.216;2023-06-14T02:22:57;100210.72;;;8.18;92.58
79136;BME280;68533;51.090;17.216;2023-06-14T02:25:25;100212.38;;;8.14;92.45
79136;BME280;68533;51.090;17.216;2023-06-14T02:27:55;100203.31;;;7.98;92.83
79136;BME280;68533;51.090;17.216;2023-06-14T02:30:21;100214.53;;;7.82;93.46
79136;BME280;68533;51.090;17.216;2023-06-14T02:32:47;100212.34;;;7.84;93.19
79136;BME280;68533;51.090;17.216;2023-06-14T02:35:14;100209.88;;;7.82;94.31
79136;BME280;68533;51.090;17.216;2023-06-14T02:37:40;100222.44;;;7.73;94.01
79136;BME280;68533;51.090;17.216;2023-06-14T02:40:07;100218.88;;;7.67;94.63
79136;BME280;68533;51.090;17.216;2023-06-14T02:42:34;100221.00;;;7.50;94.78
79136;BME280;68533;51.090;17.216;2023-06-14T02:45:01;100221.56;;;7.52;95.16
79136;BME280;68533;51.090;17.216;2023-06-14T02:47:28;100227.59;;;7.54;95.17
79136;BME280;68533;51.090;17.216;2023-06-14T02:49:56;100231.72;;;7.62;94.84
79136;BME280;68533;51.090;17.216;2023-06-14T02:52:23;100235.03;;;7.79;95.59
79136;BME280;68533;51.090;17.216;2023-06-14T02:54:51;100233.97;;;7.90;95.06
79136;BME280;68533;51.090;17.216;2023-06-14T02:57:16;100235.91;;;8.05;94.92
79136;BME280;68533;51.090;17.216;2023-06-14T02:59:42;100231.56;;;8.14;94.78
79136;BME280;68533;51.090;17.216;2023-06-14T03:02:08;100226.34;;;8.28;95.21
79136;BME280;68533;51.090;17.216;2023-06-14T03:04:35;100231.31;;;8.41;94.09
79136;BME280;68533;51.090;17.216;2023-06-14T03:07:03;100225.25;;;8.54;93.22
79136;BME280;68533;51.090;17.216;2023-06-14T03:09:36;100226.09;;;8.65;93.24
79136;BME280;68533;51.090;17.216;2023-06-14T03:12:03;100223.63;;;8.73;92.56
79136;BME280;68533;51.090;17.216;2023-06-14T03:14:30;100229.06;;;8.83;93.53
79136;BME280;68533;51.090;17.216;2023-06-14T03:16:56;100224.41;;;8.89;92.73
79136;BME280;68533;51.090;17.216;2023-06-14T03:19:23;100230.69;;;8.94;92.52
79136;BME280;68533;51.090;17.216;2023-06-14T03:21:49;100228.47;;;9.02;92.63
79136;BME280;68533;51.090;17.216;2023-06-14T03:24:15;100231.72;;;9.14;93.02
79136;BME280;68533;51.090;17.216;2023-06-14T03:26:44;100232.81;;;9.18;92.52
79136;BME280;68533;51.090;17.216;2023-06-14T03:29:10;100220.47;;;9.25;92.24
79136;BME280;68533;51.090;17.216;2023-06-14T03:31:36;100224.28;;;9.29;92.59
79136;BME280;68533;51.090;17.216;2023-06-14T03:34:03;100229.72;;;9.40;91.58
79136;BME280;68533;51.090;17.216;2023-06-14T03:36:29;100231.34;;;9.46;91.20
79136;BME280;68533;51.090;17.216;2023-06-14T03:38:55;100230.47;;;9.55;90.52
79136;BME280;68533;51.090;17.216;2023-06-14T03:41:21;100226.34;;;9.58;91.50
79136;BME280;68533;51.090;17.216;2023-06-14T03:43:47;100228.50;;;9.66;89.64
79136;BME280;68533;51.090;17.216;2023-06-14T03:46:13;100232.56;;;9.73;90.76
79136;BME280;68533;51.090;17.216;2023-06-14T03:48:39;100228.69;;;9.80;90.11
79136;BME280;68533;51.090;17.216;2023-06-14T03:51:05;100230.56;;;9.89;89.96
79136;BME280;68533;51.090;17.216;2023-06-14T03:53:32;100232.16;;;9.95;90.28
79136;BME280;68533;51.090;17.216;2023-06-14T03:55:57;100219.69;;;10.08;89.41
79136;BME280;68533;51.090;17.216;2023-06-14T03:58:25;100231.69;;;10.27;89.57
79136;BME280;68533;51.090;17.216;2023-06-14T04:00:51;100232.19;;;10.34;88.13
79136;BME280;68533;51.090;17.216;2023-06-14T04:03:17;100227.09;;;10.52;89.11
79136;BME280;68533;51.090;17.216;2023-06-14T04:05:45;100232.84;;;10.55;88.00
79136;BME280;68533;51.090;17.216;2023-06-14T04:08:15;100233.09;;;10.59;88.85
79136;BME280;68533;51.090;17.216;2023-06-14T04:10:41;100227.75;;;10.67;88.59
79136;BME280;68533;51.090;17.216;2023-06-14T04:13:07;100230.50;;;10.72;88.36
79136;BME280;68533;51.090;17.216;2023-06-14T04:15:33;100238.09;;;10.80;87.95
79136;BME280;68533;51.090;17.216;2023-06-14T04:18:00;100242.19;;;10.83;86.98
79136;BME280;68533;51.090;17.216;2023-06-14T04:20:26;100248.09;;;10.71;87.82
79136;BME280;68533;51.090;17.216;2023-06-14T04:22:52;100243.63;;;10.80;86.83
79136;BME280;68533;51.090;17.216;2023-06-14T04:25:18;100245.41;;;10.90;87.32
79136;BME280;68533;51.090;17.216;2023-06-14T04:27:44;100256.63;;;10.99;87.06
79136;BME280;68533;51.090;17.216;2023-06-14T04:30:12;100247.97;;;11.10;85.87
79136;BME280;68533;51.090;17.216;2023-06-14T04:32:39;100252.06;;;11.13;86.55
79136;BME280;68533;51.090;17.216;2023-06-14T04:35:08;100263.31;;;11.16;88.10
79136;BME280;68533;51.090;17.216;2023-06-14T04:37:35;100255.53;;;11.23;86.69
79136;BME280;68533;51.090;17.216;2023-06-14T04:40:05;100267.41;;;11.19;87.37
79136;BME280;68533;51.090;17.216;2023-06-14T04:42:32;100269.22;;;11.28;86.18
79136;BME280;68533;51.090;17.216;2023-06-14T04:44:58;100263.19;;;11.26;85.71
79136;BME280;68533;51.090;17.216;2023-06-14T04:47:24;100269.59;;;11.22;85.11
79136;BME280;68533;51.090;17.216;2023-06-14T04:49:54;100268.13;;;11.29;85.84
79136;BME280;68533;51.090;17.216;2023-06-14T04:52:20;100267.31;;;11.29;85.56
79136;BME280;68533;51.090;17.216;2023-06-14T04:54:47;100261.78;;;11.53;84.90
79136;BME280;68533;51.090;17.216;2023-06-14T04:57:13;100279.34;;;11.57;85.14
79136;BME280;68533;51.090;17.216;2023-06-14T04:59:40;100267.22;;;11.58;86.34
79136;BME280;68533;51.090;17.216;2023-06-14T05:02:06;100273.91;;;11.52;85.00
79136;BME280;68533;51.090;17.216;2023-06-14T05:04:32;100271.63;;;11.83;84.21
79136;BME280;68533;51.090;17.216;2023-06-14T05:06:58;100274.38;;;12.01;85.93
79136;BME280;68533;51.090;17.216;2023-06-14T05:09:25;100271.94;;;12.19;84.68
79136;BME280;68533;51.090;17.216;2023-06-14T05:11:51;100278.88;;;12.35;83.94
79136;BME280;68533;51.090;17.216;2023-06-14T05:14:17;100273.78;;;12.42;83.02
79136;BME280;68533;51.090;17.216;2023-06-14T05:16:44;100272.75;;;12.38;83.40
79136;BME280;68533;51.090;17.216;2023-06-14T05:19:11;100264.78;;;12.36;82.73
79136;BME280;68533;51.090;17.216;2023-06-14T05:21:37;100263.78;;;12.46;82.77
79136;BME280;68533;51.090;17.216;2023-06-14T05:24:03;100262.47;;;12.43;82.96
79136;BME280;68533;51.090;17.216;2023-06-14T05:26:29;100268.03;;;12.57;81.89
79136;BME280;68533;51.090;17.216;2023-06-14T05:28:56;100265.47;;;12.61;83.11
79136;BME280;68533;51.090;17.216;2023-06-14T05:31:25;100264.59;;;12.65;83.53
79136;BME280;68533;51.090;17.216;2023-06-14T05:33:52;100266.28;;;12.80;81.95
79136;BME280;68533;51.090;17.216;2023-06-14T05:36:19;100273.38;;;13.00;82.07
79136;BME280;68533;51.090;17.216;2023-06-14T05:38:48;100277.06;;;13.09;81.97
79136;BME280;68533;51.090;17.216;2023-06-14T05:41:15;100276.88;;;13.19;80.19
79136;BME280;68533;51.090;17.216;2023-06-14T05:43:41;100268.94;;;13.45;80.20
79136;BME280;68533;51.090;17.216;2023-06-14T05:46:09;100274.03;;;13.65;79.16
79136;BME280;68533;51.090;17.216;2023-06-14T05:48:36;100280.31;;;13.71;79.12
79136;BME280;68533;51.090;17.216;2023-06-14T05:51:02;100282.00;;;13.80;77.84
79136;BME280;68533;51.090;17.216;2023-06-14T05:53:28;100280.22;;;14.12;78.95
79136;BME280;68533;51.090;17.216;2023-06-14T05:55:54;100279.25;;;14.44;77.38
79136;BME280;68533;51.090;17.216;2023-06-14T05:58:21;100286.09;;;14.32;77.26
79136;BME280;68533;51.090;17.216;2023-06-14T06:00:47;100281.50;;;14.42;76.49
79136;BME280;68533;51.090;17.216;2023-06-14T06:03:13;100274.19;;;14.46;78.55
79136;BME280;68533;51.090;17.216;2023-06-14T06:05:41;100279.56;;;14.42;78.27
79136;BME280;68533;51.090;17.216;2023-06-14T06:08:07;100288.03;;;14.46;76.14
79136;BME280;68533;51.090;17.216;2023-06-14T06:10:33;100288.31;;;14.58;76.66
79136;BME280;68533;51.090;17.216;2023-06-14T06:12:59;100291.00;;;14.71;77.14
79136;BME280;68533;51.090;17.216;2023-06-14T06:15:25;100297.38;;;14.72;76.72
79136;BME280;68533;51.090;17.216;2023-06-14T06:17:51;100293.94;;;14.17;78.32
79136;BME280;68533;51.090;17.216;2023-06-14T06:20:17;100293.31;;;14.56;78.28
79136;BME280;68533;51.090;17.216;2023-06-14T06:22:43;100303.88;;;14.76;77.29
79136;BME280;68533;51.090;17.216;2023-06-14T06:25:09;100303.19;;;14.93;75.95
79136;BME280;68533;51.090;17.216;2023-06-14T06:27:35;100307.91;;;14.92;73.96
79136;BME280;68533;51.090;17.216;2023-06-14T06:30:06;100307.78;;;14.75;76.83
79136;BME280;68533;51.090;17.216;2023-06-14T06:32:32;100307.53;;;15.38;76.29
79136;BME280;68533;51.090;17.216;2023-06-14T06:34:58;100308.06;;;15.88;73.31
79136;BME280;68533;51.090;17.216;2023-06-14T06:37:25;100307.00;;;16.24;72.47
79136;BME280;68533;51.090;17.216;2023-06-14T06:39:51;100307.16;;;17.69;68.70
79136;BME280;68533;51.090;17.216;2023-06-14T06:42:17;100311.13;;;18.39;64.74
79136;BME280;68533;51.090;17.216;2023-06-14T06:44:43;100313.19;;;18.30;65.93
79136;BME280;68533;51.090;17.216;2023-06-14T06:47:10;100308.13;;;17.64;67.64
79136;BME280;68533;51.090;17.216;2023-06-14T06:49:37;100311.00;;;17.38;67.22
79136;BME280;68533;51.090;17.216;2023-06-14T06:52:05;100313.41;;;16.76;69.06
79136;BME280;68533;51.090;17.216;2023-06-14T06:54:31;100319.41;;;16.35;69.86
79136;BME280;68533;51.090;17.216;2023-06-14T06:56:58;100317.16;;;16.80;69.21
79136;BME280;68533;51.090;17.216;2023-06-14T06:59:24;100320.91;;;17.01;66.04
79136;BME280;68533;51.090;17.216;2023-06-14T07:01:50;100323.19;;;16.91;69.65
79136;BME280;68533;51.090;17.216;2023-06-14T07:04:16;100319.31;;;17.47;67.37
79136;BME280;68533;51.090;17.216;2023-06-14T07:06:43;100320.88;;;17.10;67.81
79136;BME280;68533;51.090;17.216;2023-06-14T07:09:09;100325.16;;;17.63;64.53
79136;BME280;68533;51.090;17.216;2023-06-14T07:11:39;100317.31;;;16.49;68.73
79136;BME280;68533;51.090;17.216;2023-06-14T07:14:05;100331.19;;;16.41;69.55
79136;BME280;68533;51.090;17.216;2023-06-14T07:16:32;100324.69;;;16.62;71.14
79136;BME280;68533;51.090;17.216;2023-06-14T07:18:58;100327.41;;;16.45;70.69
79136;BME280;68533;51.090;17.216;2023-06-14T07:21:24;100329.19;;;16.33;71.57
79136;BME280;68533;51.090;17.216;2023-06-14T07:23:54;100336.50;;;16.11;70.38
79136;BME280;68533;51.090;17.216;2023-06-14T07:26:20;100334.75;;;16.33;71.23
79136;BME280;68533;51.090;17.216;2023-06-14T07:28:47;100336.75;;;16.75;69.24
79136;BME280;68533;51.090;17.216;2023-06-14T07:31:17;100333.16;;;16.83;67.92
79136;BME280;68533;51.090;17.216;2023-06-14T07:33:45;100325.41;;;17.32;66.48
79136;BME280;68533;51.090;17.216;2023-06-14T07:36:11;100332.06;;;17.48;68.99
79136;BME280;68533;51.090;17.216;2023-06-14T07:38:37;100329.00;;;17.32;67.83
79136;BME280;68533;51.090;17.216;2023-06-14T07:41:03;100330.75;;;17.45;67.18
79136;BME280;68533;51.090;17.216;2023-06-14T07:43:29;100327.41;;;17.78;65.15
79136;BME280;68533;51.090;17.216;2023-06-14T07:45:55;100324.84;;;17.94;64.90
79136;BME280;68533;51.090;17.216;2023-06-14T07:48:22;100320.66;;;18.79;64.00
79136;BME280;68533;51.090;17.216;2023-06-14T07:50:48;100330.22;;;19.68;59.65
79136;BME280;68533;51.090;17.216;2023-06-14T07:53:14;100323.22;;;20.23;57.66
79136;BME280;68533;51.090;17.216;2023-06-14T07:55:41;100323.94;;;19.71;58.43
79136;BME280;68533;51.090;17.216;2023-06-14T07:58:09;100322.69;;;19.24;57.24
79136;BME280;68533;51.090;17.216;2023-06-14T08:00:36;100321.31;;;19.42;60.98
79136;BME280;68533;51.090;17.216;2023-06-14T08:03:02;100327.91;;;19.25;60.60
79136;BME280;68533;51.090;17.216;2023-06-14T08:05:29;100321.84;;;18.90;62.01
79136;BME280;68533;51.090;17.216;2023-06-14T08:07:56;100329.53;;;18.93;62.27
79136;BME280;68533;51.090;17.216;2023-06-14T08:10:22;100318.59;;;19.54;61.63
79136;BME280;68533;51.090;17.216;2023-06-14T08:12:50;100319.78;;;19.77;57.09
79136;BME280;68533;51.090;17.216;2023-06-14T08:15:16;100327.41;;;19.11;59.36
79136;BME280;68533;51.090;17.216;2023-06-14T08:17:44;100323.50;;;18.50;59.90
79136;BME280;68533;51.090;17.216;2023-06-14T08:20:12;100319.63;;;18.21;62.96
79136;BME280;68533;51.090;17.216;2023-06-14T08:22:38;100319.50;;;18.09;63.77
79136;BME280;68533;51.090;17.216;2023-06-14T08:25:05;100321.16;;;18.10;62.79
79136;BME280;68533;51.090;17.216;2023-06-14T08:27:32;100316.66;;;18.68;61.82
79136;BME280;68533;51.090;17.216;2023-06-14T08:29:58;100320.66;;;18.79;60.37
79136;BME280;68533;51.090;17.216;2023-06-14T08:32:24;100320.94;;;18.66;60.42
79136;BME280;68533;51.090;17.216;2023-06-14T08:34:50;100324.06;;;18.64;60.32
79136;BME280;68533;51.090;17.216;2023-06-14T08:37:17;100332.63;;;18.59;60.42
79136;BME280;68533;51.090;17.216;2023-06-14T08:39:43;100324.69;;;17.90;62.21
79136;BME280;68533;51.090;17.216;2023-06-14T08:42:10;100327.13;;;17.62;63.53
79136;BME280;68533;51.090;17.216;2023-06-14T08:44:37;100325.03;;;18.39;62.71
79136;BME280;68533;51.090;17.216;2023-06-14T08:47:05;100325.34;;;20.02;60.01
79136;BME280;68533;51.090;17.216;2023-06-14T08:49:33;100326.75;;;19.84;56.64
79136;BME280;68533;51.090;17.216;2023-06-14T08:52:00;100320.94;;;19.31;58.31
79136;BME280;68533;51.090;17.216;2023-06-14T08:54:27;100321.31;;;18.35;60.41
79136;BME280;68533;51.090;17.216;2023-06-14T08:56:58;100323.44;;;18.08;62.99
79136;BME280;68533;51.090;17.216;2023-06-14T08:59:26;100322.72;;;17.61;61.68
79136;BME280;68533;51.090;17.216;2023-06-14T09:01:53;100324.84;;;17.56;62.20
79136;BME280;68533;51.090;17.216;2023-06-14T09:04:23;100323.34;;;17.96;62.34
79136;BME280;68533;51.090;17.216;2023-06-14T09:06:56;100332.03;;;18.24;61.75
79136;BME280;68533;51.090;17.216;2023-06-14T09:09:22;100322.03;;;18.73;57.99
79136;BME280;68533;51.090;17.216;2023-06-14T09:11:51;100328.00;;;19.17;58.35
79136;BME280;68533;51.090;17.216;2023-06-14T09:14:18;100326.78;;;18.73;59.31
79136;BME280;68533;51.090;17.216;2023-06-14T09:16:44;100327.25;;;18.04;59.90
79136;BME280;68533;51.090;17.216;2023-06-14T09:19:21;100328.84;;;17.29;59.77
79136;BME280;68533;51.090;17.216;2023-06-14T09:21:48;100331.66;;;16.60;62.00
79136;BME280;68533;51.090;17.216;2023-06-14T09:24:14;100340.53;;;16.62;63.85
79136;BME280;68533;51.090;17.216;2023-06-14T09:26:41;100335.47;;;16.73;62.81
79136;BME280;68533;51.090;17.216;2023-06-14T09:29:09;100335.94;;;16.57;63.24
79136;BME280;68533;51.090;17.216;2023-06-14T09:31:35;100339.16;;;16.34;64.74
79136;BME280;68533;51.090;17.216;2023-06-14T09:34:02;100336.34;;;16.08;67.30
79136;BME280;68533;51.090;17.216;2023-06-14T09:36:31;100330.56;;;15.87;70.26
79136;BME280;68533;51.090;17.216;2023-06-14T09:39:03;100325.09;;;15.65;70.16
79136;BME280;68533;51.090;17.216;2023-06-14T09:43:59;100332.84;;;15.76;69.62
79136;BME280;68533;51.090;17.216;2023-06-14T09:46:29;100337.63;;;16.02;67.83
79136;BME280;68533;51.090;17.216;2023-06-14T09:49:00;100342.47;;;16.44;67.32
79136;BME280;68533;51.090;17.216;2023-06-14T09:51:27;100337.44;;;16.81;64.50
79136;BME280;68533;51.090;17.216;2023-06-14T09:53:59;100326.97;;;16.95;64.07
79136;BME280;68533;51.090;17.216;2023-06-14T09:56:29;100339.66;;;17.77;63.12
79136;BME280;68533;51.090;17.216;2023-06-14T09:58:59;100337.25;;;17.58;60.11
79136;BME280;68533;51.090;17.216;2023-06-14T10:01:26;100328.88;;;17.75;60.03
79136;BME280;68533;51.090;17.216;2023-06-14T10:04:06;100332.84;;;18.24;60.47
79136;BME280;68533;51.090;17.216;2023-06-14T10:06:36;100338.88;;;18.56;59.47
79136;BME280;68533;51.090;17.216;2023-06-14T10:09:04;100337.09;;;18.72;60.09
79136;BME280;68533;51.090;17.216;2023-06-14T10:11:31;100329.56;;;19.06;58.59
79136;BME280;68533;51.090;17.216;2023-06-14T10:13:58;100335.47;;;19.25;58.29
79136;BME280;68533;51.090;17.216;2023-06-14T10:16:39;100333.25;;;19.63;57.80
79136;BME280;68533;51.090;17.216;2023-06-14T10:19:19;100334.41;;;19.74;57.00
79136;BME280;68533;51.090;17.216;2023-06-14T10:22:11;100335.72;;;18.37;56.01
79136;BME280;68533;51.090;17.216;2023-06-14T10:24:43;100335.47;;;18.00;57.60
79136;BME280;68533;51.090;17.216;2023-06-14T10:27:13;100334.25;;;18.31;58.06
79136;BME280;68533;51.090;17.216;2023-06-14T10:32:26;100339.91;;;17.46;60.12
79136;BME280;68533;51.090;17.216;2023-06-14T10:37:25;100332.19;;;17.52;60.28
79136;BME280;68533;51.090;17.216;2023-06-14T10:39:51;100337.69;;;17.14;59.85
79136;BME280;68533;51.090;17.216;2023-06-14T10:42:19;100328.75;;;16.91;61.19
79136;BME280;68533;51.090;17.216;2023-06-14T10:44:53;100334.72;;;17.27;60.88
79136;BME280;68533;51.090;17.216;2023-06-14T10:47:31;100330.06;;;16.85;61.67
79136;BME280;68533;51.090;17.216;2023-06-14T10:52:28;100338.50;;;17.14;61.71
79136;BME280;68533;51.090;17.216;2023-06-14T10:57:53;100325.91;;;17.34;62.67
79136;BME280;68533;51.090;17.216;2023-06-14T11:00:28;100338.09;;;17.41;60.98
79136;BME280;68533;51.090;17.216;2023-06-14T11:05:51;100322.41;;;17.45;60.44
79136;BME280;68533;51.090;17.216;2023-06-14T11:08:33;100331.03;;;17.99;60.25
79136;BME280;68533;51.090;17.216;2023-06-14T11:11:09;100325.06;;;17.80;58.07
79136;BME280;68533;51.090;17.216;2023-06-14T11:13:39;100318.22;;;18.57;57.86
79136;BME280;68533;51.090;17.216;2023-06-14T11:16:17;100318.38;;;18.31;57.14
79136;BME280;68533;51.090;17.216;2023-06-14T11:18:46;100311.88;;;18.48;60.95
79136;BME280;68533;51.090;17.216;2023-06-14T11:21:17;100320.31;;;19.14;56.35
79136;BME280;68533;51.090;17.216;2023-06-14T11:23:51;100314.06;;;19.62;55.07
79136;BME280;68533;51.090;17.216;2023-06-14T11:26:29;100309.91;;;18.48;56.27
79136;BME280;68533;51.090;17.216;2023-06-14T11:28:59;100313.09;;;17.88;57.66
79136;BME280;68533;51.090;17.216;2023-06-14T11:31:29;100313.50;;;18.49;57.93
79136;BME280;68533;51.090;17.216;2023-06-14T11:33:57;100304.44;;;18.60;55.93
79136;BME280;68533;51.090;17.216;2023-06-14T11:36:26;100307.41;;;18.35;56.71
79136;BME280;68533;51.090;17.216;2023-06-14T11:41:35;100306.25;;;18.36;57.93
79136;BME280;68533;51.090;17.216;2023-06-14T11:44:02;100300.59;;;18.23;56.01
79136;BME280;68533;51.090;17.216;2023-06-14T11:46:29;100303.50;;;18.56;57.06
79136;BME280;68533;51.090;17.216;2023-06-14T11:48:55;100307.97;;;18.70;56.87
79136;BME280;68533;51.090;17.216;2023-06-14T11:51:21;100301.50;;;19.11;55.73
79136;BME280;68533;51.090;17.216;2023-06-14T11:53:47;100306.03;;;20.21;54.88
79136;BME280;68533;51.090;17.216;2023-06-14T11:56:14;100306.94;;;22.12;50.29
79136;BME280;68533;51.090;17.216;2023-06-14T11:58:43;100298.00;;;21.90;47.22
79136;BME280;68533;51.090;17.216;2023-06-14T12:01:09;100291.75;;;21.50;50.38
79136;BME280;68533;51.090;17.216;2023-06-14T12:03:35;100294.22;;;21.83;47.10
79136;BME280;68533;51.090;17.216;2023-06-14T12:06:04;100293.75;;;21.96;48.91
79136;BME280;68533;51.090;17.216;2023-06-14T12:08:36;100293.69;;;21.77;48.45
79136;BME280;68533;51.090;17.216;2023-06-14T12:11:13;100291.06;;;22.54;49.25
79136;BME280;68533;51.090;17.216;2023-06-14T12:13:39;100293.81;;;22.16;49.95
79136;BME280;68533;51.090;17.216;2023-06-14T12:16:10;100291.75;;;21.18;50.67
79136;BME280;68533;51.090;17.216;2023-06-14T12:18:39;100281.56;;;20.98;53.11
79136;BME280;68533;51.090;17.216;2023-06-14T12:21:06;100282.25;;;20.39;52.89
79136;BME280;68533;51.090;17.216;2023-06-14T12:23:59;100285.13;;;21.11;52.91
79136;BME280;68533;51.090;17.216;2023-06-14T12:26:25;100285.06;;;20.27;53.00
79136;BME280;68533;51.090;17.216;2023-06-14T12:28:53;100284.16;;;20.11;52.63
79136;BME280;68533;51.090;17.216;2023-06-14T12:31:19;100282.34;;;19.91;57.03
79136;BME280;68533;51.090;17.216;2023-06-14T12:33:45;100280.25;;;19.63;54.35
79136;BME280;68533;51.090;17.216;2023-06-14T12:36:15;100278.63;;;19.74;56.78
79136;BME280;68533;51.090;17.216;2023-06-14T12:38:42;100269.09;;;19.75;55.76
79136;BME280;68533;51.090;17.216;2023-06-14T12:41:08;100281.22;;;19.34;56.33
79136;BME280;68533;51.090;17.216;2023-06-14T12:43:34;100283.97;;;19.67;56.91
79136;BME280;68533;51.090;17.216;2023-06-14T12:46:00;100270.94;;;19.84;55.16
79136;BME280;68533;51.090;17.216;2023-06-14T12:48:26;100273.72;;;19.84;57.13
79136;BME280;68533;51.090;17.216;2023-06-14T12:51:00;100268.84;;;19.68;55.57
79136;BME280;68533;51.090;17.216;2023-06-14T12:53:26;100273.03;;;19.99;55.91
79136;BME280;68533;51.090;17.216;2023-06-14T12:55:52;100262.00;;;19.54;54.25
79136;BME280;68533;51.090;17.216;2023-06-14T12:58:18;100265.69;;;19.46;55.09
79136;BME280;68533;51.090;17.216;2023-06-14T13:00:46;100266.63;;;19.50;56.32
79136;BME280;68533;51.090;17.216;2023-06-14T13:03:12;100262.59;;;19.02;58.89
79136;BME280;68533;51.090;17.216;2023-06-14T13:05:39;100264.31;;;19.88;57.31
79136;BME280;68533;51.090;17.216;2023-06-14T13:08:07;100260.66;;;20.64;54.58
79136;BME280;68533;51.090;17.216;2023-06-14T13:10:34;100265.75;;;22.31;50.08